Time;durP1;ratioP1;P1;durP2;ratioP2;P2;SDS_P1;SDS_P2;PMS_P1;PMS_P2;Temp;Humidity;BMP_temperature;BMP_pressure;BME280_temperature;BME280_humidity;BME280_pressure;Samples;Min_cycle;Max_cycle;Signal;HPM_P1;HPM_P2
2023/05/28 00:00:50;;;;;;;1.80;1.13;;;;;;;;;;5056435;28;20200;-49
2023/05/28 00:03:37;;;;;;;2.38;1.17;;;;;;;;;;5056712;28;20282;-50
2023/05/28 00:06:06;;;;;;;2.97;1.30;;;;;;;;;;5056065;28;20261;-49
2023/05/28 00:08:33;;;;;;;4.10;1.08;;;;;;;;;;5055855;28;20291;-49
2023/05/28 00:11:00;;;;;;;2.00;1.20;;;;;;;;;;5055949;28;20208;-52
2023/05/28 00:13:28;;;;;;;3.20;1.30;;;;;;;;;;5055960;28;20200;-51
2023/05/28 00:15:56;;;;;;;2.22;1.23;;;;;;;;;;5055863;28;20219;-53
2023/05/28 00:18:23;;;;;;;2.60;1.02;;;;;;;;;;5055969;28;20200;-49
2023/05/28 00:20:51;;;;;;;4.90;1.38;;;;;;;;;;5055720;28;20208;-49
2023/05/28 00:23:18;;;;;;;1.38;1.00;;;;;;;;;;5055748;28;20290;-50
2023/05/28 00:25:46;;;;;;;4.68;1.00;;;;;;;;;;5055460;28;20215;-54
2023/05/28 00:28:13;;;;;;;1.90;1.10;;;;;;;;;;5055718;28;20208;-51
2023/05/28 00:30:40;;;;;;;2.33;1.30;;;;;;;;;;5037733;28;20204;-50
2023/05/28 00:33:08;;;;;;;8.07;1.17;;;;;;;;;;5037739;28;20206;-50
2023/05/28 00:35:35;;;;;;;2.63;1.23;;;;;;;;;;5055308;28;20236;-51
2023/05/28 00:38:02;;;;;;;1.08;0.93;;;;;;;;;;5037806;28;20220;-51
2023/05/28 00:40:31;;;;;;;3.05;1.13;;;;;;;;;;5037416;28;20208;-50
2023/05/28 00:42:58;;;;;;;1.98;1.05;;;;;;;;;;5037458;28;20228;-50
2023/05/28 00:45:25;;;;;;;2.65;1.30;;;;;;;;;;5037634;28;20211;-49
2023/05/28 00:47:52;;;;;;;2.30;1.10;;;;;;;;;;5055299;28;20200;-51
2023/05/28 00:50:20;;;;;;;1.42;1.05;;;;;;;;;;5055238;28;20661;-50
2023/05/28 00:52:49;;;;;;;2.30;1.02;;;;;;;;;;5027701;28;20205;-49
2023/05/28 00:55:17;;;;;;;2.70;1.10;;;;;;;;;;5017801;28;20294;-50
2023/05/28 00:57:46;;;;;;;1.52;0.90;;;;;;;;;;5044741;28;20231;-49
2023/05/28 01:00:14;;;;;;;1.45;1.00;;;;;;;;;;5054894;28;20219;-49
2023/05/28 01:02:41;;;;;;;0.80;0.77;;;;;;;;;;5054889;28;20204;-49
2023/05/28 01:05:09;;;;;;;1.00;0.77;;;;;;;;;;5054785;28;20683;-49
2023/05/28 01:07:37;;;;;;;7.10;1.20;;;;;;;;;;5037415;28;20211;-50
2023/05/28 01:10:05;;;;;;;5.85;1.20;;;;;;;;;;5037449;28;20204;-50
2023/05/28 01:12:33;;;;;;;2.22;1.00;;;;;;;;;;5020830;28;20208;-52
2023/05/28 01:15:00;;;;;;;1.40;0.90;;;;;;;;;;5054753;28;20232;-50
2023/05/28 01:17:28;;;;;;;1.77;1.05;;;;;;;;;;5054569;28;20204;-54
2023/05/28 01:20:01;;;;;;;1.77;1.10;;;;;;;;;;5037169;28;20208;-53
2023/05/28 01:22:29;;;;;;;1.00;0.90;;;;;;;;;;5036722;28;20207;-53
2023/05/28 01:24:57;;;;;;;1.02;0.85;;;;;;;;;;5037084;28;20208;-49
2023/05/28 01:27:25;;;;;;;4.35;1.27;;;;;;;;;;5036716;28;20207;-51
2023/05/28 01:29:52;;;;;;;2.75;0.93;;;;;;;;;;5020336;28;20207;-48
2023/05/28 01:32:19;;;;;;;1.60;0.95;;;;;;;;;;5036809;28;20226;-49
2023/05/28 01:34:47;;;;;;;2.38;1.10;;;;;;;;;;5036482;28;20684;-49
2023/05/28 01:37:16;;;;;;;6.80;1.25;;;;;;;;;;5020269;28;20299;-50
2023/05/28 01:39:45;;;;;;;1.52;0.88;;;;;;;;;;5012298;28;20209;-50
2023/05/28 01:42:13;;;;;;;1.67;0.98;;;;;;;;;;4979526;28;20233;-51
2023/05/28 01:44:41;;;;;;;1.33;1.05;;;;;;;;;;5012222;28;20206;-50
2023/05/28 01:47:10;;;;;;;1.17;0.90;;;;;;;;;;4995795;28;20197;-49
2023/05/28 01:49:38;;;;;;;1.48;0.82;;;;;;;;;;4995630;28;20205;-51
2023/05/28 01:52:08;;;;;;;1.42;1.00;;;;;;;;;;4995063;28;20611;-50
2023/05/28 01:54:35;;;;;;;1.88;0.85;;;;;;;;;;4995556;28;20237;-50
2023/05/28 01:57:03;;;;;;;1.60;0.90;;;;;;;;;;4995624;28;20201;-55
2023/05/28 01:59:30;;;;;;;1.75;0.90;;;;;;;;;;4995613;28;20206;-49
2023/05/28 02:01:58;;;;;;;5.07;1.00;;;;;;;;;;4995398;28;20616;-49
2023/05/28 02:04:25;;;;;;;2.15;1.10;;;;;;;;;;5011715;28;20313;-50
2023/05/28 02:06:52;;;;;;;2.45;0.93;;;;;;;;;;4995363;28;20205;-51
2023/05/28 02:09:19;;;;;;;1.42;0.90;;;;;;;;;;5011636;28;20574;-50
2023/05/28 02:11:46;;;;;;;2.28;1.05;;;;;;;;;;5031521;28;20212;-50
2023/05/28 02:14:14;;;;;;;1.15;0.95;;;;;;;;;;5033318;28;20232;-50
2023/05/28 02:16:45;;;;;;;0.77;0.77;;;;;;;;;;5032169;28;20259;-50
2023/05/28 02:19:12;;;;;;;3.22;1.00;;;;;;;;;;5033628;28;20201;-50
2023/05/28 02:21:40;;;;;;;1.83;0.85;;;;;;;;;;5032400;28;20205;-51
2023/05/28 02:24:07;;;;;;;2.53;0.93;;;;;;;;;;5032039;28;20617;-50
2023/05/28 02:26:34;;;;;;;1.10;0.80;;;;;;;;;;5033584;28;20197;-50
2023/05/28 02:29:02;;;;;;;1.60;0.90;;;;;;;;;;5033216;28;20535;-50
2023/05/28 02:31:29;;;;;;;2.05;1.20;;;;;;;;;;5033154;28;20228;-48
2023/05/28 02:33:57;;;;;;;1.25;0.90;;;;;;;;;;5033396;28;20219;-49
2023/05/28 02:36:24;;;;;;;1.95;0.75;;;;;;;;;;5032027;28;20250;-49
2023/05/28 02:38:52;;;;;;;4.72;1.00;;;;;;;;;;5033042;28;20205;-49
2023/05/28 02:41:20;;;;;;;1.55;0.90;;;;;;;;;;5031975;28;20240;-49
2023/05/28 02:43:49;;;;;;;1.10;0.70;;;;;;;;;;5032050;28;20209;-49
2023/05/28 02:46:16;;;;;;;1.23;0.80;;;;;;;;;;5033248;28;20228;-49
2023/05/28 02:48:45;;;;;;;1.95;0.90;;;;;;;;;;5033365;28;20250;-48
2023/05/28 02:51:14;;;;;;;0.93;0.70;;;;;;;;;;5032025;28;20197;-48
2023/05/28 02:53:51;;;;;;;1.50;0.93;;;;;;;;;;5033241;28;20652;-48
2023/05/28 02:56:18;;;;;;;1.98;0.95;;;;;;;;;;5032077;28;20638;-48
2023/05/28 02:58:46;;;;;;;1.30;1.00;;;;;;;;;;5032563;28;20219;-48
2023/05/28 03:01:14;;;;;;;1.92;0.93;;;;;;;;;;5033241;28;20219;-48
2023/05/28 03:03:42;;;;;;;0.60;0.60;;;;;;;;;;5034055;28;20331;-48
2023/05/28 03:06:09;;;;;;;1.45;1.00;;;;;;;;;;5036211;28;20197;-49
2023/05/28 03:08:45;;;;;;;3.42;0.90;;;;;;;;;;5036362;28;20239;-51
2023/05/28 03:11:13;;;;;;;1.02;0.80;;;;;;;;;;5035853;28;20655;-50
2023/05/28 03:13:41;;;;;;;2.15;0.75;;;;;;;;;;5035811;28;20208;-48
2023/05/28 03:16:08;;;;;;;1.85;0.75;;;;;;;;;;5035560;28;20231;-50
2023/05/28 03:18:37;;;;;;;0.88;0.75;;;;;;;;;;5035976;28;20223;-48
2023/05/28 03:21:07;;;;;;;1.30;0.90;;;;;;;;;;5036079;28;20191;-48
2023/05/28 03:23:35;;;;;;;1.25;0.70;;;;;;;;;;5036046;28;20255;-51
2023/05/28 03:26:10;;;;;;;2.13;0.80;;;;;;;;;;5035810;28;20197;-47
2023/05/28 03:28:37;;;;;;;1.98;0.65;;;;;;;;;;5036663;28;20208;-48
2023/05/28 03:31:44;;;;;;;1.15;0.77;;;;;;;;;;4995160;28;20215;-47
2023/05/28 03:34:14;;;;;;;1.05;0.75;;;;;;;;;;4979039;28;20206;-48
2023/05/28 03:36:41;;;;;;;1.35;0.70;;;;;;;;;;4995161;28;20301;-48
2023/05/28 03:39:11;;;;;;;1.02;0.50;;;;;;;;;;4978871;28;20205;-47
2023/05/28 03:41:38;;;;;;;0.60;0.50;;;;;;;;;;4995124;28;20293;-47
2023/05/28 03:44:08;;;;;;;1.20;0.88;;;;;;;;;;4994958;28;20233;-48
2023/05/28 03:46:35;;;;;;;1.13;0.73;;;;;;;;;;4994874;28;20290;-47
2023/05/28 03:49:03;;;;;;;2.15;0.80;;;;;;;;;;4978808;28;20233;-48
2023/05/28 03:51:31;;;;;;;4.22;1.13;;;;;;;;;;4994836;28;20210;-48
2023/05/28 03:54:00;;;;;;;0.82;0.55;;;;;;;;;;4994878;28;20599;-48
2023/05/28 03:56:29;;;;;;;1.10;1.00;;;;;;;;;;4978453;28;20239;-49
2023/05/28 03:58:57;;;;;;;1.42;0.80;;;;;;;;;;4978841;28;20209;-49
2023/05/28 04:01:24;;;;;;;1.13;0.90;;;;;;;;;;4994630;28;20669;-48
2023/05/28 04:03:53;;;;;;;0.93;0.73;;;;;;;;;;4978602;28;20213;-47
2023/05/28 04:06:21;;;;;;;3.90;0.95;;;;;;;;;;5005709;28;20270;-47
2023/05/28 04:08:48;;;;;;;1.00;0.80;;;;;;;;;;5016410;28;20624;-48
2023/05/28 04:11:15;;;;;;;2.22;0.90;;;;;;;;;;5031349;28;20209;-50
2023/05/28 04:13:43;;;;;;;1.65;0.90;;;;;;;;;;5031259;28;20670;-47
2023/05/28 04:16:10;;;;;;;1.40;0.98;;;;;;;;;;5014553;28;20218;-48
2023/05/28 04:18:38;;;;;;;3.10;1.00;;;;;;;;;;5031160;28;20581;-48
2023/05/28 04:21:06;;;;;;;3.30;0.85;;;;;;;;;;5031492;28;20201;-49
2023/05/28 04:23:34;;;;;;;2.42;1.08;;;;;;;;;;5031153;28;20705;-48
2023/05/28 04:26:01;;;;;;;2.78;0.90;;;;;;;;;;5010791;28;20732;-51
2023/05/28 04:28:29;;;;;;;1.13;0.80;;;;;;;;;;5012857;28;20201;-48
2023/05/28 04:31:01;;;;;;;1.90;1.05;;;;;;;;;;5006302;28;20712;-55
2023/05/28 04:33:29;;;;;;;1.98;0.80;;;;;;;;;;5011287;28;20277;-50
2023/05/28 04:35:57;;;;;;;2.25;0.80;;;;;;;;;;5014195;28;20217;-54
2023/05/28 04:38:28;;;;;;;2.47;1.00;;;;;;;;;;5014121;28;20252;-53
2023/05/28 04:40:56;;;;;;;2.13;1.10;;;;;;;;;;5016250;28;20205;-49
2023/05/28 04:43:23;;;;;;;1.63;0.70;;;;;;;;;;5052267;28;20193;-48
2023/05/28 04:45:53;;;;;;;1.88;0.90;;;;;;;;;;5030573;28;20227;-50
2023/05/28 04:48:21;;;;;;;1.73;0.85;;;;;;;;;;5037508;28;20199;-48
2023/05/28 04:50:50;;;;;;;1.60;0.95;;;;;;;;;;5037558;28;20269;-48
2023/05/28 04:53:17;;;;;;;0.88;0.77;;;;;;;;;;5055155;28;20204;-51
2023/05/28 04:55:44;;;;;;;1.02;0.68;;;;;;;;;;5032612;28;20239;-48
2023/05/28 04:58:12;;;;;;;5.32;1.00;;;;;;;;;;5020022;28;20200;-50
2023/05/28 05:00:39;;;;;;;1.83;0.75;;;;;;;;;;5040144;28;20299;-53
2023/05/28 05:03:08;;;;;;;2.20;0.90;;;;;;;;;;5037151;28;20204;-50
2023/05/28 05:05:38;;;;;;;1.35;0.73;;;;;;;;;;5037124;28;20230;-60
2023/05/28 05:08:06;;;;;;;1.17;0.75;;;;;;;;;;5054957;28;20204;-59
2023/05/28 05:10:33;;;;;;;0.60;0.60;;;;;;;;;;5054720;28;20294;-60
2023/05/28 05:13:01;;;;;;;3.17;0.85;;;;;;;;;;5033387;28;20212;-61
2023/05/28 05:15:28;;;;;;;1.23;0.60;;;;;;;;;;5016965;28;20778;-61
2023/05/28 05:17:55;;;;;;;0.93;0.75;;;;;;;;;;5023102;28;20193;-60
2023/05/28 05:20:23;;;;;;;0.95;0.70;;;;;;;;;;5025862;28;20240;-60
2023/05/28 05:22:54;;;;;;;1.88;0.90;;;;;;;;;;5026809;28;20196;-61
2023/05/28 05:25:22;;;;;;;1.10;0.45;;;;;;;;;;5038141;28;20189;-60
2023/05/28 05:27:53;;;;;;;1.38;0.68;;;;;;;;;;5026449;28;20668;-58
2023/05/28 05:30:20;;;;;;;1.55;0.77;;;;;;;;;;5028947;28;20190;-59
2023/05/28 05:32:47;;;;;;;0.90;0.68;;;;;;;;;;5028221;28;20254;-60
2023/05/28 05:35:16;;;;;;;1.30;0.65;;;;;;;;;;5026715;28;20307;-59
2023/05/28 05:38:01;;;;;;;1.42;0.60;;;;;;;;;;5051553;28;20235;-59
2023/05/28 05:40:47;;;;;;;2.00;0.77;;;;;;;;;;5036764;28;20739;-59
2023/05/28 05:43:43;;;;;;;1.67;0.70;;;;;;;;;;5015650;28;20228;-59
2023/05/28 05:46:10;;;;;;;2.13;0.70;;;;;;;;;;5015373;28;20223;-59
2023/05/28 05:48:38;;;;;;;2.53;0.60;;;;;;;;;;5014896;28;20248;-59
2023/05/28 05:51:06;;;;;;;2.33;0.95;;;;;;;;;;5032207;28;20220;-59
2023/05/28 05:53:41;;;;;;;1.20;0.40;;;;;;;;;;5035429;28;20231;-59
2023/05/28 05:56:08;;;;;;;0.73;0.55;;;;;;;;;;5052953;28;20230;-60
2023/05/28 05:58:36;;;;;;;0.50;0.50;;;;;;;;;;5035141;28;20634;-59
2023/05/28 06:01:05;;;;;;;1.35;0.60;;;;;;;;;;5034954;28;20242;-59
2023/05/28 06:03:32;;;;;;;0.88;0.55;;;;;;;;;;5035143;28;20231;-59
2023/05/28 06:06:28;;;;;;;1.05;0.70;;;;;;;;;;5043024;28;20298;-60
2023/05/28 06:09:14;;;;;;;1.33;0.80;;;;;;;;;;5032835;28;20221;-61
2023/05/28 06:11:48;;;;;;;4.15;0.77;;;;;;;;;;5015412;28;20300;-60
2023/05/28 06:14:15;;;;;;;2.75;0.70;;;;;;;;;;5015295;28;20220;-60
2023/05/28 06:16:42;;;;;;;2.28;0.70;;;;;;;;;;5035277;28;20235;-60
2023/05/28 06:19:10;;;;;;;1.25;0.60;;;;;;;;;;5052109;28;20273;-60
2023/05/28 06:21:37;;;;;;;1.60;0.65;;;;;;;;;;5052265;28;20230;-60
2023/05/28 06:24:06;;;;;;;1.10;0.50;;;;;;;;;;5029793;28;20216;-60
2023/05/28 06:26:36;;;;;;;0.95;0.60;;;;;;;;;;5042420;28;20758;-60
2023/05/28 06:29:05;;;;;;;2.55;0.70;;;;;;;;;;5026889;28;20295;-61
2023/05/28 06:31:32;;;;;;;0.75;0.60;;;;;;;;;;5026161;28;20246;-59
2023/05/28 06:33:59;;;;;;;5.28;0.80;;;;;;;;;;5026212;28;20220;-61
2023/05/28 06:36:26;;;;;;;0.88;0.60;;;;;;;;;;5033648;28;20243;-60
2023/05/28 06:38:54;;;;;;;0.85;0.50;;;;;;;;;;5034547;28;20246;-60
2023/05/28 06:41:23;;;;;;;1.30;0.60;;;;;;;;;;5022199;28;20233;-59
2023/05/28 06:43:52;;;;;;;0.95;0.60;;;;;;;;;;5014443;28;20282;-60
2023/05/28 06:46:30;;;;;;;5.40;0.65;;;;;;;;;;5017048;28;20299;-60
2023/05/28 06:48:58;;;;;;;2.60;0.70;;;;;;;;;;5035544;28;20216;-60
2023/05/28 06:51:25;;;;;;;2.38;0.70;;;;;;;;;;5037285;28;20216;-59
2023/05/28 06:53:52;;;;;;;1.95;0.60;;;;;;;;;;5039910;28;20236;-58
2023/05/28 06:56:25;;;;;;;1.52;0.77;;;;;;;;;;5034513;28;20654;-57
2023/05/28 06:59:11;;;;;;;2.92;0.47;;;;;;;;;;5047842;28;20216;-48
2023/05/28 07:01:59;;;;;;;3.25;0.70;;;;;;;;;;5031997;28;20728;-58
2023/05/28 07:04:36;;;;;;;1.13;0.60;;;;;;;;;;5032021;28;20590;-53
2023/05/28 07:07:11;;;;;;;1.52;0.75;;;;;;;;;;5031379;28;20696;-55
2023/05/28 07:09:40;;;;;;;0.65;0.40;;;;;;;;;;5030219;28;20223;-52
2023/05/28 07:12:08;;;;;;;3.72;0.60;;;;;;;;;;5024185;28;20204;-52
2023/05/28 07:14:39;;;;;;;0.43;0.35;;;;;;;;;;5024850;28;20232;-56
2023/05/28 07:17:06;;;;;;;1.27;0.50;;;;;;;;;;5022210;28;20250;-54
2023/05/28 07:19:34;;;;;;;5.50;1.00;;;;;;;;;;5022911;28;20220;-57
2023/05/28 07:22:01;;;;;;;3.97;0.65;;;;;;;;;;5035458;28;20213;-55
2023/05/28 07:24:29;;;;;;;2.40;0.50;;;;;;;;;;5030038;28;20232;-59
2023/05/28 07:26:56;;;;;;;1.70;0.93;;;;;;;;;;5020514;28;20240;-59
2023/05/28 07:29:26;;;;;;;0.50;0.50;;;;;;;;;;5018786;28;20283;-58
2023/05/28 07:31:54;;;;;;;2.83;0.57;;;;;;;;;;5013048;28;20325;-55
2023/05/28 07:34:24;;;;;;;0.40;0.40;;;;;;;;;;5029414;28;20233;-58
2023/05/28 07:36:51;;;;;;;1.27;0.45;;;;;;;;;;5014797;28;20320;-52
2023/05/28 07:39:20;;;;;;;1.42;0.60;;;;;;;;;;5014541;28;20681;-55
2023/05/28 07:41:49;;;;;;;1.02;0.60;;;;;;;;;;5014486;28;20633;-50
2023/05/28 07:44:25;;;;;;;0.75;0.60;;;;;;;;;;5014756;28;20223;-54
2023/05/28 07:46:52;;;;;;;2.08;0.40;;;;;;;;;;5026636;28;20216;-51
2023/05/28 07:49:32;;;;;;;0.77;0.50;;;;;;;;;;5034243;28;20224;-50
2023/05/28 07:51:59;;;;;;;0.40;0.30;;;;;;;;;;5038102;28;20236;-51
2023/05/28 07:54:30;;;;;;;0.98;0.30;;;;;;;;;;5055125;28;20228;-54
2023/05/28 07:57:00;;;;;;;4.50;0.57;;;;;;;;;;5037690;28;20664;-52
2023/05/28 07:59:33;;;;;;;0.73;0.40;;;;;;;;;;5037379;28;20231;-50
2023/05/28 08:02:02;;;;;;;0.40;0.40;;;;;;;;;;5037417;28;20251;-51
2023/05/28 08:04:30;;;;;;;0.65;0.43;;;;;;;;;;5037507;28;20224;-53
2023/05/28 08:06:57;;;;;;;0.90;0.50;;;;;;;;;;5037756;28;20255;-57
2023/05/28 08:09:25;;;;;;;1.15;0.40;;;;;;;;;;5037693;28;20561;-51
2023/05/28 08:11:54;;;;;;;0.47;0.47;;;;;;;;;;5037233;28;20225;-51
2023/05/28 08:14:25;;;;;;;1.25;0.47;;;;;;;;;;5037670;28;20231;-49
2023/05/28 08:16:55;;;;;;;1.27;0.50;;;;;;;;;;5036681;28;20232;-50
2023/05/28 08:19:33;;;;;;;0.82;0.70;;;;;;;;;;5037424;28;20235;-50
2023/05/28 08:22:03;;;;;;;1.15;0.38;;;;;;;;;;5037189;28;20227;-49
2023/05/28 08:24:30;;;;;;;1.20;0.40;;;;;;;;;;5026147;28;20220;-50
2023/05/28 08:26:57;;;;;;;0.60;0.35;;;;;;;;;;5017482;28;20252;-51
2023/05/28 08:29:26;;;;;;;1.17;0.40;;;;;;;;;;5017076;28;20225;-51
2023/05/28 08:32:02;;;;;;;1.95;0.40;;;;;;;;;;5017158;28;20227;-56
2023/05/28 08:34:36;;;;;;;1.70;0.40;;;;;;;;;;5017508;28;20224;-52
2023/05/28 08:37:04;;;;;;;0.90;0.47;;;;;;;;;;5019150;28;20236;-48
2023/05/28 08:39:39;;;;;;;2.38;0.55;;;;;;;;;;5037099;28;20644;-49
2023/05/28 08:42:06;;;;;;;1.17;0.52;;;;;;;;;;5036731;28;20700;-49
2023/05/28 08:44:34;;;;;;;4.03;0.50;;;;;;;;;;5036335;28;20219;-49
2023/05/28 08:47:02;;;;;;;0.60;0.32;;;;;;;;;;5030802;28;20247;-49
2023/05/28 08:49:53;;;;;;;0.93;0.57;;;;;;;;;;5016792;28;20307;-55
2023/05/28 08:52:26;;;;;;;1.10;0.45;;;;;;;;;;5017035;28;20230;-53
2023/05/28 08:54:53;;;;;;;1.85;0.50;;;;;;;;;;5035356;28;20205;-50
2023/05/28 08:57:22;;;;;;;1.58;0.50;;;;;;;;;;5017232;28;20231;-55
2023/05/28 08:59:57;;;;;;;0.75;0.57;;;;;;;;;;5015285;28;20204;-49
2023/05/28 09:02:25;;;;;;;0.40;0.40;;;;;;;;;;5020746;28;20291;-49
2023/05/28 09:04:53;;;;;;;0.77;0.40;;;;;;;;;;5037163;28;20573;-48
2023/05/28 09:07:20;;;;;;;0.40;0.38;;;;;;;;;;5036920;28;20287;-47
2023/05/28 09:09:56;;;;;;;3.97;0.55;;;;;;;;;;5037069;28;20207;-49
2023/05/28 09:12:26;;;;;;;0.95;0.50;;;;;;;;;;5036898;28;20290;-49
2023/05/28 09:14:59;;;;;;;1.73;0.45;;;;;;;;;;5037296;28;20258;-50
2023/05/28 09:17:35;;;;;;;0.57;0.40;;;;;;;;;;5036792;28;20223;-48
2023/05/28 09:20:12;;;;;;;0.75;0.50;;;;;;;;;;5037126;28;20216;-48
2023/05/28 09:22:41;;;;;;;2.05;0.57;;;;;;;;;;5036784;28;20200;-49
2023/05/28 09:25:24;;;;;;;0.30;0.30;;;;;;;;;;5014817;28;20200;-50
2023/05/28 09:28:13;;;;;;;0.95;0.40;;;;;;;;;;5025738;28;20204;-57
2023/05/28 09:30:41;;;;;;;1.88;0.70;;;;;;;;;;5036895;28;20204;-57
2023/05/28 09:33:09;;;;;;;1.48;0.70;;;;;;;;;;5050632;28;20200;-58
2023/05/28 09:35:36;;;;;;;0.73;0.43;;;;;;;;;;5040101;28;20618;-57
2023/05/28 09:38:11;;;;;;;0.77;0.40;;;;;;;;;;5034077;28;20216;-57
2023/05/28 09:40:39;;;;;;;0.60;0.40;;;;;;;;;;5034382;28;20204;-57
2023/05/28 09:43:08;;;;;;;1.80;0.52;;;;;;;;;;5040004;28;20188;-57
2023/05/28 09:45:35;;;;;;;0.60;0.40;;;;;;;;;;5053844;28;20203;-56
2023/05/28 09:48:03;;;;;;;1.25;0.40;;;;;;;;;;5053747;28;20204;-55
2023/05/28 09:50:30;;;;;;;0.93;0.30;;;;;;;;;;5024387;28;20308;-55
2023/05/28 09:52:59;;;;;;;0.70;0.43;;;;;;;;;;5033861;28;20197;-57
2023/05/28 09:55:27;;;;;;;0.90;0.40;;;;;;;;;;5033827;28;20255;-57
2023/05/28 09:58:02;;;;;;;0.40;0.40;;;;;;;;;;5033525;28;20274;-57
2023/05/28 10:00:32;;;;;;;1.08;0.50;;;;;;;;;;5042586;28;20195;-56
2023/05/28 10:03:11;;;;;;;0.85;0.60;;;;;;;;;;5052956;28;20266;-58
2023/05/28 10:05:44;;;;;;;0.98;0.63;;;;;;;;;;5053641;28;20192;-58
2023/05/28 10:08:13;;;;;;;2.88;0.40;;;;;;;;;;5053609;28;20188;-56
2023/05/28 10:10:45;;;;;;;2.25;0.47;;;;;;;;;;5034783;28;20715;-56
2023/05/28 10:13:13;;;;;;;0.50;0.43;;;;;;;;;;5029633;28;20208;-50
2023/05/28 10:15:41;;;;;;;0.57;0.43;;;;;;;;;;5033000;28;20211;-56
2023/05/28 10:18:08;;;;;;;0.55;0.40;;;;;;;;;;5015886;28;20216;-57
2023/05/28 10:20:36;;;;;;;0.88;0.70;;;;;;;;;;5033754;28;20540;-56
2023/05/28 10:23:03;;;;;;;1.00;0.60;;;;;;;;;;5033024;28;20205;-57
2023/05/28 10:25:31;;;;;;;0.80;0.50;;;;;;;;;;5037129;28;20203;-58
2023/05/28 10:28:02;;;;;;;0.82;0.50;;;;;;;;;;5052250;28;20196;-58
2023/05/28 10:30:36;;;;;;;1.58;0.45;;;;;;;;;;5053006;28;20248;-59
2023/05/28 10:33:16;;;;;;;1.30;0.40;;;;;;;;;;5053118;28;20196;-58
2023/05/28 10:36:02;;;;;;;0.77;0.45;;;;;;;;;;5041495;28;20247;-57
2023/05/28 10:38:29;;;;;;;1.50;0.70;;;;;;;;;;5033076;28;20746;-58
2023/05/28 10:41:03;;;;;;;6.10;0.55;;;;;;;;;;5032764;28;20219;-57
2023/05/28 10:43:41;;;;;;;0.38;0.38;;;;;;;;;;5032924;28;20189;-58
2023/05/28 10:46:16;;;;;;;3.85;0.40;;;;;;;;;;5046049;28;20200;-58
2023/05/28 10:49:12;;;;;;;2.83;0.45;;;;;;;;;;5050031;28;20659;-58
2023/05/28 10:51:59;;;;;;;0.85;0.40;;;;;;;;;;5032997;28;20212;-58
2023/05/28 10:54:30;;;;;;;0.85;0.43;;;;;;;;;;5014822;28;20234;-54
2023/05/28 10:57:16;;;;;;;2.15;0.57;;;;;;;;;;5033436;28;20220;-55
2023/05/28 10:59:58;;;;;;;0.90;0.50;;;;;;;;;;5051918;28;20295;-53
2023/05/28 11:02:28;;;;;;;1.40;0.40;;;;;;;;;;5052965;28;20227;-54
2023/05/28 11:04:58;;;;;;;0.85;0.60;;;;;;;;;;5050426;28;20224;-53
2023/05/28 11:07:39;;;;;;;1.45;0.60;;;;;;;;;;5052231;28;20294;-50
2023/05/28 11:10:11;;;;;;;0.70;0.50;;;;;;;;;;5053458;28;20271;-52
2023/05/28 11:12:40;;;;;;;1.08;0.60;;;;;;;;;;5050102;28;20735;-52
2023/05/28 11:15:09;;;;;;;0.85;0.63;;;;;;;;;;5043877;28;20270;-49
2023/05/28 11:17:41;;;;;;;2.67;0.75;;;;;;;;;;5050093;28;20743;-51
2023/05/28 11:20:40;;;;;;;2.05;0.68;;;;;;;;;;5046944;28;20741;-52
2023/05/28 11:23:17;;;;;;;0.52;0.40;;;;;;;;;;4987865;28;20605;-51
2023/05/28 11:25:47;;;;;;;0.45;0.32;;;;;;;;;;4991453;28;20621;-57
2023/05/28 11:28:14;;;;;;;0.65;0.43;;;;;;;;;;4992591;28;20226;-55
2023/05/28 11:30:41;;;;;;;0.93;0.30;;;;;;;;;;4977797;28;20730;-54
2023/05/28 11:33:09;;;;;;;0.68;0.50;;;;;;;;;;4978296;28;20233;-51
2023/05/28 11:35:36;;;;;;;1.30;0.40;;;;;;;;;;4978308;28;20250;-51
2023/05/28 11:38:04;;;;;;;1.08;0.50;;;;;;;;;;4994243;28;20245;-51
2023/05/28 11:40:34;;;;;;;1.45;0.60;;;;;;;;;;4993457;28;20597;-56
2023/05/28 11:43:04;;;;;;;1.13;0.57;;;;;;;;;;4976178;28;20321;-53
2023/05/28 11:45:37;;;;;;;0.70;0.50;;;;;;;;;;4993639;28;20253;-47
2023/05/28 11:48:11;;;;;;;0.38;0.35;;;;;;;;;;4994209;28;20233;-49
2023/05/28 11:50:39;;;;;;;1.73;0.60;;;;;;;;;;4978212;28;20240;-51
2023/05/28 11:53:06;;;;;;;3.47;0.40;;;;;;;;;;4977865;28;20218;-50
2023/05/28 11:55:33;;;;;;;4.75;0.57;;;;;;;;;;4993963;28;20234;-52
2023/05/28 11:58:01;;;;;;;1.20;0.70;;;;;;;;;;5001850;28;20241;-50
2023/05/28 12:00:37;;;;;;;5.72;0.80;;;;;;;;;;5047522;28;20232;-50
2023/05/28 12:03:05;;;;;;;1.67;0.80;;;;;;;;;;5055272;28;20290;-50
2023/05/28 12:05:38;;;;;;;2.25;0.57;;;;;;;;;;5055378;28;20228;-49
2023/05/28 12:08:06;;;;;;;1.88;0.70;;;;;;;;;;5052847;28;20586;-50
2023/05/28 12:10:33;;;;;;;0.70;0.50;;;;;;;;;;5035273;28;20263;-53
2023/05/28 12:13:01;;;;;;;1.02;0.60;;;;;;;;;;5025722;28;20216;-53
2023/05/28 12:15:29;;;;;;;1.63;0.70;;;;;;;;;;5045780;28;20216;-50
2023/05/28 12:17:58;;;;;;;2.53;0.82;;;;;;;;;;5044426;28;20239;-52
2023/05/28 12:20:25;;;;;;;0.35;0.32;;;;;;;;;;5046291;28;20262;-49
2023/05/28 12:23:08;;;;;;;1.38;0.70;;;;;;;;;;5044674;28;20558;-48
2023/05/28 12:25:44;;;;;;;1.08;0.50;;;;;;;;;;5048029;28;20242;-49
2023/05/28 12:28:13;;;;;;;1.25;0.55;;;;;;;;;;5054330;28;20723;-48
2023/05/28 12:30:43;;;;;;;2.40;0.55;;;;;;;;;;5040186;28;20311;-51
2023/05/28 12:33:11;;;;;;;1.05;0.60;;;;;;;;;;5035134;28;20367;-50
2023/05/28 12:35:38;;;;;;;0.82;0.40;;;;;;;;;;5038220;28;20220;-50
2023/05/28 12:38:07;;;;;;;1.30;0.52;;;;;;;;;;5042726;28;20235;-48
2023/05/28 12:40:34;;;;;;;0.60;0.40;;;;;;;;;;5047318;28;20587;-49
2023/05/28 12:43:02;;;;;;;1.30;0.70;;;;;;;;;;5044810;28;20235;-51
2023/05/28 12:45:29;;;;;;;0.95;0.55;;;;;;;;;;5047531;28;20247;-49
2023/05/28 12:47:57;;;;;;;1.52;0.55;;;;;;;;;;5043233;28;20223;-49
2023/05/28 12:50:24;;;;;;;1.33;0.55;;;;;;;;;;5041503;28;20275;-50
2023/05/28 12:52:51;;;;;;;1.00;0.63;;;;;;;;;;5034359;28;20224;-50
2023/05/28 12:55:20;;;;;;;0.52;0.50;;;;;;;;;;5032819;28;20587;-49
2023/05/28 12:57:48;;;;;;;0.75;0.47;;;;;;;;;;5032823;28;20244;-49
2023/05/28 13:00:15;;;;;;;1.38;0.50;;;;;;;;;;5033256;28;20248;-49
2023/05/28 13:02:43;;;;;;;0.68;0.55;;;;;;;;;;5033543;28;20232;-49
2023/05/28 13:05:10;;;;;;;0.45;0.40;;;;;;;;;;5033956;28;20229;-48
2023/05/28 13:07:38;;;;;;;2.42;0.60;;;;;;;;;;5034158;28;20229;-49
2023/05/28 13:10:07;;;;;;;1.38;0.50;;;;;;;;;;5033877;28;20235;-48
2023/05/28 13:12:36;;;;;;;1.08;0.55;;;;;;;;;;5036503;28;20216;-48
2023/05/28 13:15:05;;;;;;;2.90;0.70;;;;;;;;;;5035752;28;20224;-48
2023/05/28 13:17:33;;;;;;;1.33;0.60;;;;;;;;;;5033270;28;20631;-51
2023/05/28 13:20:01;;;;;;;2.72;0.50;;;;;;;;;;5032666;28;20229;-48
2023/05/28 13:22:28;;;;;;;6.97;0.90;;;;;;;;;;5033624;28;20220;-48
2023/05/28 13:24:55;;;;;;;1.17;0.70;;;;;;;;;;5033582;28;20623;-50
2023/05/28 13:27:23;;;;;;;2.10;0.73;;;;;;;;;;5034063;28;20228;-50
2023/05/28 13:29:50;;;;;;;0.73;0.40;;;;;;;;;;5046904;28;20212;-55
2023/05/28 13:32:17;;;;;;;0.40;0.38;;;;;;;;;;5054196;28;20258;-51
2023/05/28 13:34:44;;;;;;;2.65;0.98;;;;;;;;;;5052896;28;20204;-50
2023/05/28 13:37:11;;;;;;;2.65;0.60;;;;;;;;;;5038383;28;20678;-52
2023/05/28 13:39:38;;;;;;;1.02;0.60;;;;;;;;;;5034139;28;20607;-51
2023/05/28 13:42:07;;;;;;;4.82;1.42;;;;;;;;;;5034082;28;20238;-59
2023/05/28 13:44:35;;;;;;;1.35;0.60;;;;;;;;;;5038608;28;20212;-51
2023/05/28 13:47:03;;;;;;;7.10;0.50;;;;;;;;;;5046208;28;20204;-54
2023/05/28 13:49:31;;;;;;;0.60;0.43;;;;;;;;;;5053785;28;20283;-51
2023/05/28 13:51:59;;;;;;;0.70;0.50;;;;;;;;;;5046566;28;20204;-51
2023/05/28 13:54:26;;;;;;;2.47;0.65;;;;;;;;;;5039652;28;20649;-49
2023/05/28 13:56:54;;;;;;;1.75;0.70;;;;;;;;;;5052341;28;20211;-53
2023/05/28 13:59:21;;;;;;;2.45;0.70;;;;;;;;;;5052579;28;20227;-58
2023/05/28 14:01:48;;;;;;;1.33;0.50;;;;;;;;;;5044547;28;22078;-56
2023/05/28 14:04:15;;;;;;;0.70;0.60;;;;;;;;;;5051989;28;20261;-53
2023/05/28 14:06:42;;;;;;;3.20;0.50;;;;;;;;;;5042589;28;20672;-54
2023/05/28 14:09:09;;;;;;;1.20;0.40;;;;;;;;;;5051795;28;20643;-51
2023/05/28 14:11:37;;;;;;;3.67;0.80;;;;;;;;;;5053661;28;20208;-58
2023/05/28 14:14:24;;;;;;;1.35;0.70;;;;;;;;;;5050436;28;20198;-52
2023/05/28 14:16:51;;;;;;;1.05;0.60;;;;;;;;;;5052011;28;20199;-48
2023/05/28 14:19:18;;;;;;;0.93;0.60;;;;;;;;;;5053139;28;20246;-49
2023/05/28 14:21:46;;;;;;;1.23;0.55;;;;;;;;;;5053901;28;20208;-47
2023/05/28 14:24:13;;;;;;;1.85;0.80;;;;;;;;;;5042792;28;20196;-50
2023/05/28 14:26:40;;;;;;;0.80;0.50;;;;;;;;;;5050186;28;20644;-48
2023/05/28 14:29:07;;;;;;;0.77;0.60;;;;;;;;;;5049377;28;20536;-49
2023/05/28 14:31:34;;;;;;;0.70;0.55;;;;;;;;;;5053280;28;20215;-52
2023/05/28 14:34:02;;;;;;;1.17;0.52;;;;;;;;;;5053246;28;20203;-58
2023/05/28 14:36:29;;;;;;;2.60;0.75;;;;;;;;;;5053052;28;20211;-48
2023/05/28 14:38:56;;;;;;;0.70;0.50;;;;;;;;;;5052571;28;20582;-51
2023/05/28 14:41:24;;;;;;;3.72;0.65;;;;;;;;;;5040395;28;20235;-52
2023/05/28 14:43:51;;;;;;;1.95;0.50;;;;;;;;;;5042157;28;20220;-48
2023/05/28 14:46:18;;;;;;;1.45;0.47;;;;;;;;;;5040156;28;20688;-53
2023/05/28 14:48:45;;;;;;;1.52;0.70;;;;;;;;;;5035545;28;20197;-57
2023/05/28 14:51:13;;;;;;;2.05;0.57;;;;;;;;;;5034824;28;20192;-55
2023/05/28 14:53:40;;;;;;;1.13;0.63;;;;;;;;;;5051927;28;20204;-50
2023/05/28 14:56:07;;;;;;;0.70;0.57;;;;;;;;;;5045029;28;20197;-57
2023/05/28 14:58:35;;;;;;;7.15;0.82;;;;;;;;;;5031865;28;20228;-57